PBI weather

Palm Beach International Airport
West Palm Beach, Florida, United States

Public forecast

Using degrees Fahrenheit for public forecast. Weather courtesy of forecast.io.

Current aviation weather report (METAR) for Palm Beach International Airport

Retrieved 2019/10/21 18:53 UTC (12 minutes ago):

KPBI 211853Z 14013KT 10SM SCT031 SCT042 SCT250 32/24 A2997 RMK AO2 SLP148 T03170239

Aviation forecast (TAF) for Palm Beach International Airport

Retrieved 2019/10/21 18:27 UTC (38 minutes ago):

TAF KPBI 211722Z 2118/2218 15010KT P6SM SCT035 SCT050 FM220000 VRB02KT P6SM FEW025 FM221500 16010KT P6SM SCT035 SCT050